Station APAM2 - 8575512 - Annapolis, MD Image indicating link to RSS feed of recent meteorological observations for station APAM2


Conditions at APAM2 as of
(12:48 am EDT)
0448 GMT on 09/01/2026:
     

Click on the graph icon in the table below to see a time series plot of the last five days of that observation.

5-day plot - Wind Direction Wind Direction (WDIR):SSE ( 160 deg true )
5-day plot - Wind Speed Wind Speed (WSPD): 1.9 kts
5-day plot - Wind Gust Wind Gust (GST): 2.9 kts
5-day plot - Atmospheric Pressure Atmospheric Pressure (PRES):30.05 in
5-day plot - Air Temperature Air Temperature (ATMP): 80.6 °F
5-day plot - Water Temperature Water Temperature (WTMP): 82.6 °F
5-day plot -  Wind Speed, Wind Gust and Atmospheric Pressure Combined plot of Wind Speed, Gust, and Air Pressure
NOS Water Level Observation Network Water Level
Previous observations
TIME
(EDT)
5-day plot - Wind Direction
WDIR
 
5-day plot - Wind Speed
WSPD
kts
5-day plot - Wind Gust
GST
kts
5-day plot - Wave Height
WVHT
ft
5-day plot - Dominant Wave Period
DPD
sec
5-day plot - Average Wave Period
APD
sec
5-day plot - Mean Wave Direction
MWD
 
5-day plot - Atmospheric Pressure
PRES
in
5-day plot - Pressure Tendency
PTDY
in
5-day plot - Air Temperature
ATMP
°F
5-day plot - Water Temperature
WTMP
°F
5-day plot - Dew Point
DEWP
°F
5-day plot - Salinity
SAL
psu
5-day plot - Visibility
VIS
nmi
5-day plot - Tide (above MLLW)
TIDE
ft
2026-09-01 12:42 am SE 1.9 1.9----30.05- 80.8 82.6----
2026-09-01 12:36 am S 1.0 1.9----30.05- 80.8 82.6----
2026-09-01 12:30 am- 0.0 1.0----30.05- 80.8 82.6----
2026-09-01 12:24 am- 0.0 1.0----30.05- 80.8 82.6----
2026-09-01 12:18 am- 0.0 1.0----30.05-- 82.6----
2026-09-01 12:12 am- 0.0 1.9----30.05-- 82.6----
2026-09-01 12:06 am- 0.0 1.9----30.05-- 82.8----
2026-09-01 12:00 am SW 1.0 2.9----30.05+0.00 81.0 82.8----
2026-08-31 11:54 pm SW 1.0 2.9----30.05- 81.0 82.8----
2026-08-31 11:48 pm- 0.0 1.0----30.05-- 82.8----
2026-08-31 11:42 pmSSW 1.9 2.9----30.05-- 82.8----
2026-08-31 11:36 pm S 1.9 2.9----30.05-- 82.8----
2026-08-31 11:30 pm W 1.0 1.9----30.05- 81.1 82.8----
2026-08-31 11:24 pm- 0.0 1.0----30.05- 81.3 82.8----
2026-08-31 11:18 pm- 0.0 2.9------- 82.8----
2026-08-31 11:12 pm W 1.9 4.1------- 82.8----
2026-08-31 11:06 pmWSW 1.0 2.9------- 82.8----
2026-08-31 11:00 pm W 1.0 2.9----30.05+0.01 81.7 82.8----
2026-08-31 10:54 pm S 1.9 2.9----30.05- 81.9 82.8----
2026-08-31 10:48 pm S 1.9 5.1----30.04- 81.9 82.8----
2026-08-31 10:42 pmSSE 2.9 6.0----30.04- 81.9 82.8----
2026-08-31 10:36 pmSSE 1.9 2.9----30.04- 81.9 82.8----
2026-08-31 10:30 pmSSE 1.9 5.1----30.04- 81.9 82.8----
2026-08-31 10:24 pmSSE 2.9 7.0----30.05- 81.9 82.6----
2026-08-31 10:18 pm S 2.9 6.0----30.05-- 82.6----
2026-08-31 10:12 pmSSE 4.1 8.0----30.05-- 82.6----
2026-08-31 10:06 pmSSE 2.9 7.0----30.05-- 82.6----
2026-08-31 10:00 pmSSE 2.9 7.0----30.05+0.00 81.7 82.6----
2026-08-31 09:54 pm SE 6.0 8.9----30.04- 81.5 82.6----
2026-08-31 09:48 pm SE 6.0 8.0----30.04- 81.7 82.4----
2026-08-31 09:42 pmSSE 5.1 8.0----30.04- 81.9 82.4----
2026-08-31 09:36 pm S 4.1 8.0----30.05- 82.0 82.6----
2026-08-31 09:30 pmSSE 4.1 6.0----30.05- 82.0 82.6----
2026-08-31 09:24 pmSSE 2.9 7.0----30.05- 82.2 82.6----
2026-08-31 09:18 pmSSE 2.9 7.0----30.05-- 82.6----
2026-08-31 09:12 pm SE 4.1 8.0----30.05-- 82.6----
2026-08-31 09:06 pmESE 5.1 8.0----30.05-- 82.6----
2026-08-31 09:00 pm E 6.0 8.0----30.05-0.01 82.6 82.4----
2026-08-31 08:54 pm E 7.0 8.9----30.05- 82.6 82.6----
2026-08-31 08:48 pm E 8.0 8.9----30.04-- 82.6----
2026-08-31 08:42 pm E 4.1 5.1----30.04-- 82.6----
2026-08-31 08:36 pm- 0.0 1.0----30.04-- 82.6----
2026-08-31 08:30 pm NE 1.0 1.0----30.04- 82.8 82.6----
2026-08-31 08:24 pmENE 1.0 1.9----30.04- 82.8 82.6----
2026-08-31 08:18 pmENE 1.0 1.9----30.04-- 82.8----
2026-08-31 08:12 pm E 1.9 2.9----30.04-- 82.8----
2026-08-31 08:06 pm E 1.9 4.1----30.04-- 82.6----
2026-08-31 08:00 pm E 2.9 2.9----30.04-0.01 82.8 82.6----
2026-08-31 07:54 pm E 1.9 2.9----30.04- 82.8 82.4----
2026-08-31 07:48 pmENE 1.9 4.1----30.04-- 82.4----
2026-08-31 07:42 pmENE 2.9 4.1----30.04-- 82.2----
2026-08-31 07:36 pmENE 2.9 5.1----30.04-- 82.6----
2026-08-31 06:48 pmNNE 4.1 6.0----30.05- 82.9 82.2----
2026-08-31 06:42 pm N 4.1 5.1----30.06- 83.1 82.8----
2026-08-31 06:36 pm N 2.9 5.1----30.06- 83.5 82.6----
2026-08-31 06:30 pmNNE 2.9 4.1----30.06- 83.7 82.6----
2026-08-31 06:24 pmNNE 2.9 4.1----30.06- 83.8 82.4----
2026-08-31 06:18 pmNNE 2.9 5.1----30.06- 83.8 82.2----
2026-08-31 06:12 pm NE 2.9 5.1----30.06- 83.8 82.6----
2026-08-31 06:06 pmENE 5.1 6.0----30.06- 83.8 82.0----
2026-08-31 06:00 pmENE 5.1 6.0----30.06-0.01 83.8 82.2----
2026-08-31 05:54 pmENE 6.0 7.0----30.06- 84.0 82.0----
2026-08-31 05:48 pmENE 5.1 8.0----30.06- 84.0 82.9----
2026-08-31 05:42 pmENE 5.1 6.0----30.06- 84.4 82.6----
2026-08-31 05:36 pm NE 2.9 5.1----30.06- 84.6 82.0----
2026-08-31 05:30 pm NE 2.9 4.1----30.06- 84.6 81.9----
2026-08-31 05:24 pm NE 2.9 6.0----30.06- 84.6 81.9----
2026-08-31 05:18 pmNNE 4.1 6.0----30.06-- 82.0----
2026-08-31 05:12 pmNNE 4.1 6.0----30.06-- 81.5----
2026-08-31 05:06 pm NW 1.9 2.9----30.06-- 81.1----
2026-08-31 05:00 pm N 2.9 5.1----30.05-0.03 84.9 81.1----
2026-08-31 04:54 pmENE 4.1 6.0----30.05- 84.9 81.1----
2026-08-31 04:48 pm E 4.1 5.1----30.05- 84.4 81.7----
2026-08-31 04:42 pm E 4.1 5.1----30.05- 84.6 82.0----
2026-08-31 04:36 pm E 2.9 5.1----30.05- 84.4 82.6----
2026-08-31 04:30 pm E 4.1 5.1----30.06- 84.0 83.1----
2026-08-31 04:24 pm E 4.1 5.1----30.06- 84.0 83.3----
2026-08-31 04:18 pm E 5.1 5.1----30.06-- 82.8----
2026-08-31 04:12 pm E 5.1 6.0----30.06-- 83.1----
2026-08-31 04:06 pm E 4.1 6.0----30.06-- 83.1----
2026-08-31 04:00 pm E 4.1 5.1----30.06-0.04 84.0 83.1----
2026-08-31 03:54 pm E 4.1 5.1----30.06- 84.2 82.9----
2026-08-31 03:48 pm E 1.9 2.9----30.06- 84.2 82.9----
2026-08-31 03:42 pmNNE 2.9 4.1----30.06- 84.6 82.9----
2026-08-31 03:36 pmNNE 4.1 6.0----30.06- 84.0 82.9----
2026-08-31 03:30 pm NE 4.1 6.0----30.07- 83.8 82.6----
2026-08-31 03:24 pmENE 4.1 5.1----30.07- 84.0 82.4----
2026-08-31 03:18 pm E 2.9 4.1----30.07-- 82.2----
2026-08-31 03:12 pm E 4.1 5.1----30.07-- 82.0----
2026-08-31 03:06 pm E 4.1 5.1----30.08-- 81.9----
2026-08-31 03:00 pm E 5.1 5.1----30.07-0.03 83.5 82.2----
2026-08-31 02:54 pm E 4.1 5.1----30.08- 83.3 82.4----
2026-08-31 02:48 pm E 5.1 6.0----30.08- 82.9 82.6----
2026-08-31 02:42 pm E 5.1 6.0----30.08- 83.1 82.6----
2026-08-31 02:36 pm E 6.0 6.0----30.08- 83.1 82.6----
2026-08-31 02:30 pm E 5.1 7.0----30.08- 83.1 82.8----
2026-08-31 02:24 pm E 6.0 7.0----30.08- 82.9 82.8----
2026-08-31 02:18 pm E 6.0 6.0----30.08-- 82.8----
2026-08-31 02:12 pm E 6.0 6.0----30.08-- 82.8----
2026-08-31 02:06 pm E 5.1 7.0----30.08-- 82.8----
2026-08-31 02:00 pm E 6.0 7.0----30.08-0.02 82.6 82.8----
2026-08-31 01:54 pm E 7.0 7.0----30.08- 82.8 82.6----
2026-08-31 01:48 pm E 7.0 8.0----30.08-- 82.6----
2026-08-31 01:42 pm E 6.0 7.0----30.08-- 82.8----
2026-08-31 01:36 pm E 6.0 7.0----30.09-- 82.6----
2026-08-31 01:30 pm E 5.1 6.0----30.09- 82.6 82.6----
2026-08-31 01:24 pm E 5.1 6.0----30.09- 82.6 82.6----
2026-08-31 01:18 pm E 5.1 5.1----30.09-- 82.6----
2026-08-31 01:12 pm E 4.1 5.1----30.09-- 82.6----
2026-08-31 01:06 pm E 4.1 5.1----30.09-- 82.6----
2026-08-31 01:00 pm SE 5.1 6.0----30.09+0.00 83.5 82.4----
2026-08-31 12:54 pm E 5.1 7.0----30.10- 82.2 82.4----
2026-08-31 12:48 pm SE 4.1 5.1----30.09- 83.1 82.4----
2026-08-31 12:42 pm SE 4.1 6.0----30.09- 83.8 82.4----
2026-08-31 12:36 pm E 2.9 5.1----30.09- 82.4 82.4----
2026-08-31 12:30 pm E 4.1 4.1----30.10- 82.6 82.2----
2026-08-31 12:24 pmENE 2.9 4.1----30.10- 82.4 82.2----
2026-08-31 12:18 pm NE 4.1 7.0----30.10-- 82.2----
2026-08-31 12:12 pm NE 4.1 8.0----30.10-- 82.2----
2026-08-31 12:06 pm E 1.9 5.1----30.10-- 82.2----
2026-08-31 12:00 pm E 4.1 7.0----30.10+0.00 81.1 82.0----
2026-08-31 11:54 am E 2.9 6.0----30.10- 81.3 82.0----
2026-08-31 11:48 am NE 5.1 8.9----30.10- 81.1 82.0----
2026-08-31 11:42 am E 5.1 8.0----30.10- 81.0 82.0----
2026-08-31 11:36 amENE 5.1 8.0----30.10- 80.8 82.0----
2026-08-31 11:30 amENE 6.0 8.0----30.10- 80.6 82.0----
2026-08-31 11:24 amENE 6.0 8.0----30.10- 80.6 82.0----
2026-08-31 11:18 am NE 5.1 7.0----30.10-- 82.0----
2026-08-31 11:12 amNNE 5.1 8.9----30.10-- 82.0----
2026-08-31 11:06 am NE 5.1 8.0----30.10-- 82.0----
2026-08-31 11:00 am NE 5.1 8.9----30.10+0.01 80.6 82.0----
2026-08-31 10:54 am NE 6.0 8.0----30.10- 79.9 82.0----
2026-08-31 10:48 amENE 6.0 8.0----30.10- 80.1 82.0----
2026-08-31 10:42 am NE 6.0 8.9----30.10- 79.7 81.9----
2026-08-31 10:36 amNNE 6.0 9.9----30.10- 79.7 81.9----
2026-08-31 10:30 amENE 7.0 8.9----30.10- 79.7 81.9----
2026-08-31 10:24 amNNE 6.0 8.9----30.10- 79.7 81.9----
2026-08-31 10:18 am NE 6.0 8.9----30.10-- 81.9----
2026-08-31 10:12 am N 5.1 8.9----30.10-- 81.7----
2026-08-31 10:06 amNNE 7.0 8.0----30.10-- 81.9----
2026-08-31 10:00 am NE 6.0 9.9----30.10+0.03 80.6 81.7----
2026-08-31 09:54 am NE 7.0 12.0----30.10- 80.4 81.7----
2026-08-31 09:48 am NE 5.1 8.0----30.10-- 81.7----
2026-08-31 09:42 amENE 5.1 9.9----30.10-- 81.7----
2026-08-31 09:36 amENE 7.0 8.9----30.10-- 81.7----
2026-08-31 09:30 amNNE 6.0 8.0----30.10- 80.1 81.7----
2026-08-31 09:24 amENE 6.0 9.9----30.10- 79.9 81.5----
2026-08-31 09:18 amENE 7.0 8.9----30.09-- 81.5----
2026-08-31 09:12 amENE 7.0 8.9----30.10-- 81.5----
2026-08-31 09:06 am NE 5.1 8.0----30.10-- 81.5----
2026-08-31 09:00 am NE 7.0 8.9----30.10+0.04 79.2 81.5----
2026-08-31 08:54 amENE 8.0 9.9----30.10- 79.3 81.5----
2026-08-31 08:48 am NE 6.0 11.1----30.09-- 81.5----
2026-08-31 08:42 amNNE 6.0 12.0----30.09-- 81.5----
2026-08-31 08:36 amNNE 4.1 7.0----30.09-- 81.5----
2026-08-31 08:30 amNNE 4.1 7.0----30.09- 79.5 81.5----
2026-08-31 08:24 am NE 6.0 8.9----30.09- 79.5 81.5----
2026-08-31 08:18 am NE 2.9 5.1----30.09-- 81.5----
2026-08-31 08:12 amNNE 1.9 4.1----30.09-- 81.5----
2026-08-31 08:06 amNNE 2.9 6.0----30.09-- 81.3----
2026-08-31 08:00 amNNE 5.1 6.0----30.09+0.04 79.0 81.3----
2026-08-31 07:54 am N 4.1 7.0----30.09- 79.0 81.5----
2026-08-31 07:48 am N 5.1 6.0----30.09-- 81.5----
2026-08-31 07:42 amNNW 5.1 6.0----30.08-- 81.5----
2026-08-31 07:36 amNNW 5.1 6.0----30.08-- 81.5----
2026-08-31 07:30 amNNW 4.1 4.1----30.07- 78.6 81.5----
2026-08-31 07:24 amNNW 2.9 4.1----30.07- 78.3 81.5----
2026-08-31 07:18 amNNW 2.9 5.1----30.07-- 81.5----
2026-08-31 07:12 am NW 5.1 6.0----30.07-- 81.5----
2026-08-31 07:06 amWNW 5.1 8.0----30.07-- 81.5----
2026-08-31 07:00 am NW 5.1 6.0----30.07+0.02 77.5 81.5----
2026-08-31 06:54 amWNW 5.1 6.0----30.07- 77.9 81.5----
2026-08-31 06:48 am W 1.9 1.9----30.06- 77.0 81.5----
2026-08-31 06:42 am W 1.0 2.9----30.06- 77.2 81.5----
2026-08-31 06:36 am W 1.9 1.9----30.06- 77.4 81.5----
2026-08-31 06:30 am- 0.0 1.9----30.06- 77.2 81.5----
2026-08-31 06:24 am W 1.9 2.9----30.06- 77.2 81.5----
2026-08-31 06:18 amWNW 1.9 4.1----30.06-- 81.5----
2026-08-31 06:12 am NW 1.9 4.1----30.06-- 81.5----
2026-08-31 06:06 am- 0.0 1.0----30.05-- 81.3----
2026-08-31 06:00 am- 0.0 1.0----30.06+0.00 77.4 81.3----
2026-08-31 05:54 am- 0.0 1.9----30.06- 77.4 81.3----
2026-08-31 05:48 amWNW 1.0 1.9----30.06- 77.4 81.5----
2026-08-31 05:42 am- 0.0 0.0----30.06- 77.7 81.5----
2026-08-31 05:36 am- 0.0 1.9----30.06- 77.9 81.5----
2026-08-31 05:30 am- 0.0 1.0----30.06- 77.7 81.5----
2026-08-31 05:24 am- 0.0 1.0----30.05- 77.5 81.5----
2026-08-31 05:18 am W 1.0 1.0----30.05-- 81.7----
2026-08-31 05:12 am- 0.0 1.0----30.05-- 81.7----
2026-08-31 05:06 am W 1.9 1.9----30.05-- 81.7----
2026-08-31 05:00 am- 0.0 1.9----30.05-0.02 77.5 81.7----
2026-08-31 04:54 amWNW 1.9 4.1----30.05- 77.9 81.7----
2026-08-31 04:48 amNNW 4.1 4.1----30.05- 77.5 81.7----
2026-08-31 04:42 am W 1.0 1.9----30.05- 77.4 81.7----
2026-08-31 04:36 am W 1.0 2.9----30.05- 77.4 81.7----
2026-08-31 04:30 am NW 4.1 5.1----30.06- 77.7 81.7----
2026-08-31 04:24 am W 2.9 2.9----30.06- 77.4 81.7----
2026-08-31 04:18 amWNW 2.9 2.9----30.05-- 81.7----
2026-08-31 04:12 amWNW 1.0 1.9----30.05-- 81.7----
2026-08-31 04:06 am- 0.0 1.9----30.05-- 81.7----
2026-08-31 04:00 amWNW 1.0 1.9----30.05-0.01 77.5 81.7----
2026-08-31 03:54 amWNW 1.0 1.0----30.06- 77.4 81.7----
2026-08-31 03:48 am- 0.0 1.0----30.06- 77.4 81.7----
2026-08-31 03:42 amWNW 1.0 1.9----30.06- 77.7 81.7----
2026-08-31 03:36 am NW 1.9 2.9----30.06- 77.7 81.7----
2026-08-31 03:30 amNNW 1.9 2.9----30.06- 77.5 81.7----
2026-08-31 03:24 am NW 1.0 1.9----30.06- 77.9 81.7----
2026-08-31 03:18 am- 0.0 1.0----30.06- 77.7 81.7----
2026-08-31 03:12 am N 1.0 1.9----30.06- 77.7 81.7----
2026-08-31 03:06 am N 1.0 1.9----30.06- 77.5 81.7----
2026-08-31 03:00 am N 1.0 1.9----30.06-0.01 77.5 81.7----
2026-08-31 02:54 am N 1.9 4.1----30.06- 77.5 81.7----
2026-08-31 02:48 am N 2.9 4.1----30.06- 77.5 81.9----
2026-08-31 02:42 am NW 1.9 2.9----30.06- 77.9 81.9----
2026-08-31 02:36 am W 1.0 1.9----30.06- 77.5 81.9----
2026-08-31 02:30 am W 1.0 1.9----30.06-- 81.9----
2026-08-31 02:24 am W 1.9 1.9----30.06-- 81.9----
2026-08-31 02:18 am--------- 77.7-----
2026-08-31 02:12 am--------- 78.1-----
2026-08-31 02:06 am--------- 78.3-----
2026-08-31 02:00 amWNW 2.9 4.1----30.07-0.01 78.1 81.9----
2026-08-31 01:54 amWNW 1.9 2.9----30.07- 77.9 81.9----
2026-08-31 01:48 amWNW 1.9 2.9----30.07- 77.7 81.9----
2026-08-31 01:42 am W 2.9 2.9----30.07- 77.9 81.9----
2026-08-31 01:36 amWNW 1.9 1.9----30.07- 78.4 81.9----
2026-08-31 01:30 am W 1.0 1.0----30.06- 78.3 81.9----
2026-08-31 01:24 am- 0.0 1.0----30.06- 78.3 81.9----
2026-08-31 01:18 am- 0.0 1.9----30.07-- 81.9----
2026-08-31 01:12 am W 1.0 1.0----30.06-- 81.9----
2026-08-31 01:06 am W 1.0 1.9----30.06-- 81.9----
2026-08-31 01:00 am- 0.0 1.0----30.06-0.02 78.6 81.9----
2026-08-31 12:54 am W 1.0 1.9----30.06- 78.6 81.9----